createdAt,value
2022-12-25T00:01:21.746Z,98867.41
2022-12-25T00:03:48.812Z,98852.91
2022-12-25T00:06:15.507Z,98853.53
2022-12-25T00:08:42.376Z,98841.09
2022-12-25T00:11:16.205Z,98847.00
2022-12-25T00:13:43.939Z,98844.13
2022-12-25T00:16:17.040Z,98846.91
2022-12-25T00:18:43.860Z,98843.59
2022-12-25T00:21:11.339Z,98833.66
2022-12-25T00:23:38.060Z,98825.34
2022-12-25T00:26:09.014Z,98818.75
2022-12-25T00:28:36.430Z,98816.81
2022-12-25T00:31:15.259Z,98811.03
2022-12-25T00:33:44.381Z,98807.25
2022-12-25T00:36:13.448Z,98812.16
2022-12-25T00:38:41.239Z,98811.19
2022-12-25T00:41:14.385Z,98804.03
2022-12-25T00:43:43.937Z,98822.06
2022-12-25T00:46:16.373Z,98841.38
2022-12-25T00:48:45.076Z,98842.13
2022-12-25T00:51:12.135Z,98849.59
2022-12-25T00:53:38.993Z,98853.06
2022-12-25T00:56:07.797Z,98853.91
2022-12-25T00:58:35.159Z,98848.09
2022-12-25T01:01:02.782Z,98851.53
2022-12-25T01:03:29.725Z,98863.50
2022-12-25T01:06:02.656Z,98874.75
2022-12-25T01:08:33.217Z,98865.78
2022-12-25T01:11:04.713Z,98878.59
2022-12-25T01:13:32.698Z,98878.44
2022-12-25T01:15:59.373Z,98867.72
2022-12-25T01:18:26.857Z,98853.81
2022-12-25T01:20:53.483Z,98860.16
2022-12-25T01:23:25.928Z,98843.84
2022-12-25T01:25:52.511Z,98841.22
2022-12-25T01:28:19.088Z,98844.00
2022-12-25T01:30:49.571Z,98841.03
2022-12-25T01:33:16.252Z,98840.63
2022-12-25T01:35:42.809Z,98838.75
2022-12-25T01:38:09.394Z,98841.78
2022-12-25T01:40:35.996Z,98837.09
2022-12-25T01:43:02.584Z,98847.81
2022-12-25T01:45:33.647Z,98851.19
2022-12-25T01:48:06.478Z,98864.38
2022-12-25T01:50:34.783Z,98860.63
2022-12-25T01:53:02.349Z,98852.84
2022-12-25T01:55:29.647Z,98855.34
2022-12-25T01:57:56.707Z,98864.72
2022-12-25T02:00:23.507Z,98867.38
2022-12-25T02:02:50.786Z,98859.13
2022-12-25T02:05:27.518Z,98852.34
2022-12-25T02:07:55.654Z,98852.72
2022-12-25T02:10:22.611Z,98854.22
2022-12-25T02:12:49.833Z,98858.72
2022-12-25T02:15:22.905Z,98866.13
2022-12-25T02:18:01.184Z,98853.47
2022-12-25T02:21:06.203Z,98850.47
2022-12-25T02:24:00.644Z,98848.06
2022-12-25T02:26:42.331Z,98838.81
2022-12-25T02:29:39.511Z,98850.84
2022-12-25T02:32:35.683Z,98844.28
2022-12-25T02:35:28.488Z,98836.56
2022-12-25T02:38:22.824Z,98839.00
2022-12-25T02:40:56.563Z,98844.25
2022-12-25T02:43:50.310Z,98838.25
2022-12-25T02:46:40.555Z,98829.41
2022-12-25T02:49:32.322Z,98829.78
2022-12-25T02:52:24.328Z,98823.38
2022-12-25T02:55:19.001Z,98825.28
2022-12-25T02:58:09.733Z,98825.84
2022-12-25T03:01:02.654Z,98823.22
2022-12-25T03:03:52.317Z,98841.47
2022-12-25T03:06:41.145Z,98837.66
2022-12-25T03:09:49.784Z,98845.56
2022-12-25T03:12:27.549Z,98845.22
2022-12-25T03:15:15.508Z,98850.31
2022-12-25T03:17:42.659Z,98847.28
2022-12-25T03:20:28.826Z,98853.13
2022-12-25T03:23:15.681Z,98846.53
2022-12-25T03:26:01.044Z,98850.66
2022-12-25T03:28:27.670Z,98845.22
2022-12-25T03:31:28.219Z,98841.66
2022-12-25T03:34:38.349Z,98831.66
2022-12-25T03:37:44.781Z,98834.88
2022-12-25T03:40:55.754Z,98831.25
2022-12-25T03:44:14.100Z,98843.69
2022-12-25T03:47:11.644Z,98829.97
2022-12-25T03:50:08.771Z,98837.69
2022-12-25T03:52:56.040Z,98835.25
2022-12-25T03:55:42.278Z,98821.06
2022-12-25T03:58:39.552Z,98818.88
2022-12-25T04:01:25.095Z,98820.34
2022-12-25T04:04:10.726Z,98811.34
2022-12-25T04:06:56.120Z,98815.84
2022-12-25T04:09:41.456Z,98812.81
2022-12-25T04:12:26.835Z,98813.94
2022-12-25T04:15:12.072Z,98816.97
2022-12-25T04:17:57.554Z,98808.31
2022-12-25T04:20:43.081Z,98806.84
2022-12-25T04:23:28.427Z,98795.13
2022-12-25T04:26:16.874Z,98794.19
2022-12-25T04:29:02.325Z,98788.00
2022-12-25T04:31:47.573Z,98797.41
2022-12-25T04:34:33.035Z,98797.41
2022-12-25T04:36:59.619Z,98797.41
2022-12-25T04:39:26.200Z,98795.88
2022-12-25T04:41:52.817Z,98788.75
2022-12-25T04:44:20.701Z,98799.66
2022-12-25T04:46:47.454Z,98803.41
2022-12-25T04:49:14.049Z,98794.00
2022-12-25T04:51:40.726Z,98797.38
2022-12-25T04:54:07.305Z,98786.06
2022-12-25T04:56:35.009Z,98794.31
2022-12-25T04:59:03.416Z,98789.00
2022-12-25T05:01:30.176Z,98789.00
2022-12-25T05:03:56.977Z,98796.41
2022-12-25T05:06:23.768Z,98802.97
2022-12-25T05:08:50.353Z,98807.84
2022-12-25T05:11:17.024Z,98808.59
2022-12-25T05:13:44.334Z,98816.88
2022-12-25T05:16:19.776Z,98804.06
2022-12-25T05:18:50.648Z,98814.59
2022-12-25T05:21:18.276Z,98812.94
2022-12-25T05:23:48.531Z,98812.00
2022-12-25T05:26:18.024Z,98812.00
2022-12-25T05:28:45.061Z,98813.50
2022-12-25T05:31:11.925Z,98816.06
2022-12-25T05:33:38.520Z,98816.34
2022-12-25T05:36:08.456Z,98812.00
2022-12-25T05:38:35.639Z,98812.34
2022-12-25T05:41:02.254Z,98804.44
2022-12-25T05:43:29.186Z,98795.63
2022-12-25T05:45:55.902Z,98792.81
2022-12-25T05:48:22.513Z,98802.81
2022-12-25T05:50:49.318Z,98799.22
2022-12-25T05:53:17.556Z,98798.06
2022-12-25T05:55:50.193Z,98793.75
2022-12-25T05:58:16.759Z,98790.75
2022-12-25T06:00:46.785Z,98782.84
2022-12-25T06:03:13.478Z,98777.00
2022-12-25T06:05:40.117Z,98776.28
2022-12-25T06:08:06.718Z,98770.25
2022-12-25T06:10:33.303Z,98767.94
2022-12-25T06:13:00.654Z,98773.44
2022-12-25T06:15:27.332Z,98776.28
2022-12-25T06:17:53.900Z,98781.94
2022-12-25T06:20:20.515Z,98780.78
2022-12-25T06:22:47.312Z,98779.28
2022-12-25T06:25:13.970Z,98774.75
2022-12-25T06:27:40.543Z,98770.97
2022-12-25T06:30:08.143Z,98762.69
2022-12-25T06:32:34.732Z,98765.50
2022-12-25T06:35:01.345Z,98756.69
2022-12-25T06:37:27.973Z,98765.69
2022-12-25T06:39:54.575Z,98766.81
2022-12-25T06:42:23.013Z,98757.75
2022-12-25T06:44:50.887Z,98754.19
2022-12-25T06:47:17.848Z,98751.94
2022-12-25T06:49:44.472Z,98748.56
2022-12-25T06:52:11.036Z,98757.03
2022-12-25T06:54:38.486Z,98750.03
2022-12-25T06:57:05.124Z,98747.56
2022-12-25T06:59:31.696Z,98762.25
2022-12-25T07:01:58.781Z,98755.66
2022-12-25T07:04:39.361Z,98757.16
2022-12-25T07:07:09.304Z,98758.47
2022-12-25T07:09:38.572Z,98760.69
2022-12-25T07:12:14.004Z,98768.69
2022-12-25T07:14:40.867Z,98768.47
2022-12-25T07:17:07.485Z,98767.09
2022-12-25T07:19:44.689Z,98766.19
2022-12-25T07:22:11.891Z,98766.81
2022-12-25T07:24:38.472Z,98756.25
2022-12-25T07:27:05.155Z,98749.75
2022-12-25T07:29:31.782Z,98742.31
2022-12-25T07:31:58.680Z,98742.72
2022-12-25T07:34:29.151Z,98740.09
2022-12-25T07:36:55.825Z,98728.44
2022-12-25T07:39:23.571Z,98729.50
2022-12-25T07:41:50.265Z,98741.25
2022-12-25T07:44:16.928Z,98735.91
2022-12-25T07:46:43.656Z,98745.88
2022-12-25T07:49:11.289Z,98746.41
2022-12-25T07:51:37.952Z,98735.00
2022-12-25T07:54:05.019Z,98732.91
2022-12-25T07:56:32.109Z,98731.78
2022-12-25T07:58:58.686Z,98737.75
2022-12-25T08:01:27.700Z,98733.78
2022-12-25T08:03:58.392Z,98732.03
2022-12-25T08:06:30.097Z,98742.47
2022-12-25T08:09:09.737Z,98747.19
2022-12-25T08:11:37.693Z,98750.19
2022-12-25T08:14:09.024Z,98740.78
2022-12-25T08:16:35.981Z,98718.50
2022-12-25T08:19:02.687Z,98726.69
2022-12-25T08:21:29.377Z,98719.13
2022-12-25T08:23:55.981Z,98723.78
2022-12-25T08:26:23.555Z,98725.63
2022-12-25T08:28:50.560Z,98723.00
2022-12-25T08:31:27.662Z,98721.97
2022-12-25T08:33:58.580Z,98713.69
2022-12-25T08:36:25.446Z,98723.63
2022-12-25T08:38:55.702Z,98717.69
2022-12-25T08:41:27.572Z,98711.06
2022-12-25T08:43:54.234Z,98706.47
2022-12-25T08:46:21.107Z,98704.88
2022-12-25T08:48:49.843Z,98701.41
2022-12-25T08:51:20.464Z,98681.91
2022-12-25T08:53:49.625Z,98683.13
2022-12-25T08:56:17.042Z,98681.91
2022-12-25T08:58:44.331Z,98683.41
2022-12-25T09:01:12.896Z,98692.84
2022-12-25T09:03:39.543Z,98702.28
2022-12-25T09:06:15.370Z,98711.56
2022-12-25T09:08:48.671Z,98704.69
2022-12-25T09:11:18.714Z,98694.22
2022-12-25T09:13:45.547Z,98701.19
2022-12-25T09:16:20.322Z,98716.53
2022-12-25T09:18:47.368Z,98703.28
2022-12-25T09:21:15.913Z,98713.41
2022-12-25T09:23:50.738Z,98706.19
2022-12-25T09:26:19.500Z,98720.94
2022-12-25T09:28:51.239Z,98716.38
2022-12-25T09:31:20.753Z,98723.56
2022-12-25T09:33:47.525Z,98716.13
2022-12-25T09:36:14.292Z,98710.00
2022-12-25T09:38:41.003Z,98708.84
2022-12-25T09:41:29.895Z,98713.13
2022-12-25T09:44:01.961Z,98704.28
2022-12-25T09:46:41.736Z,98703.25
2022-12-25T09:49:27.483Z,98703.53
2022-12-25T09:52:03.562Z,98698.69
2022-12-25T09:54:44.531Z,98699.88
2022-12-25T09:57:13.947Z,98701.03
2022-12-25T09:59:43.702Z,98685.56
2022-12-25T10:02:39.207Z,98681.31
2022-12-25T10:05:44.615Z,98678.59
2022-12-25T10:08:47.632Z,98669.41
2022-12-25T10:11:51.292Z,98663.97
2022-12-25T10:14:39.158Z,98661.56
2022-12-25T10:17:49.440Z,98644.69
2022-12-25T10:20:54.297Z,98644.19
2022-12-25T10:23:41.642Z,98644.41
2022-12-25T10:26:16.924Z,98646.75
2022-12-25T10:28:59.350Z,98639.53
2022-12-25T10:31:29.210Z,98644.19
2022-12-25T10:33:56.238Z,98640.22
2022-12-25T10:36:27.511Z,98620.63
2022-12-25T10:38:55.194Z,98612.69
2022-12-25T10:42:03.503Z,98593.97
2022-12-25T10:44:30.970Z,98607.78
2022-12-25T10:46:59.900Z,98609.31
2022-12-25T10:49:37.068Z,98615.00
2022-12-25T10:52:16.434Z,98621.47
2022-12-25T10:54:43.551Z,98622.38
2022-12-25T10:57:10.135Z,98620.25
2022-12-25T11:00:20.233Z,98605.94
2022-12-25T11:02:47.040Z,98611.59
2022-12-25T11:05:29.291Z,98618.78
2022-12-25T11:07:56.932Z,98618.78
2022-12-25T11:10:42.125Z,98610.44
2022-12-25T11:13:21.495Z,98600.56
2022-12-25T11:15:49.501Z,98598.94
2022-12-25T11:18:26.825Z,98600.88
2022-12-25T11:20:57.933Z,98584.44
2022-12-25T11:23:27.828Z,98566.53
2022-12-25T11:26:02.929Z,98579.88
2022-12-25T11:28:32.884Z,98570.53
2022-12-25T11:31:07.032Z,98561.50
2022-12-25T11:33:40.820Z,98567.72
2022-12-25T11:36:31.229Z,98558.97
2022-12-25T11:39:27.110Z,98565.09
2022-12-25T11:42:21.384Z,98567.91
2022-12-25T11:45:17.347Z,98568.69
2022-12-25T11:47:54.475Z,98571.38
2022-12-25T11:51:01.537Z,98545.03
2022-12-25T11:53:43.129Z,98545.31
2022-12-25T11:56:26.330Z,98529.13
2022-12-25T11:58:58.099Z,98519.91
2022-12-25T12:01:47.684Z,98513.00
2022-12-25T12:04:29.478Z,98515.25
2022-12-25T12:07:27.055Z,98512.88
2022-12-25T12:10:19.162Z,98506.56
2022-12-25T12:13:23.872Z,98495.34
2022-12-25T12:15:51.298Z,98463.56
2022-12-25T12:18:26.831Z,98480.69
2022-12-25T12:21:09.566Z,98478.69
2022-12-25T12:24:05.503Z,98473.16
2022-12-25T12:26:40.718Z,98477.44
2022-12-25T12:29:23.279Z,98483.97
2022-12-25T12:31:51.752Z,98477.81
2022-12-25T12:34:42.735Z,98474.53
2022-12-25T12:37:31.751Z,98464.16
2022-12-25T12:39:59.627Z,98472.44
2022-12-25T12:42:46.128Z,98452.22
2022-12-25T12:45:25.359Z,98448.16
2022-12-25T12:47:52.754Z,98455.19
2022-12-25T12:50:42.231Z,98455.59
2022-12-25T12:53:23.977Z,98451.94
2022-12-25T12:55:52.588Z,98447.56
2022-12-25T12:58:33.048Z,98452.03
2022-12-25T13:01:11.001Z,98449.25
2022-12-25T13:04:06.377Z,98450.88
2022-12-25T13:07:06.249Z,98453.69
2022-12-25T13:09:54.039Z,98446.56
2022-12-25T13:12:22.280Z,98455.06
2022-12-25T13:14:50.341Z,98445.69
2022-12-25T13:17:26.117Z,98454.91
2022-12-25T13:19:58.683Z,98454.59
2022-12-25T13:22:36.361Z,98453.59
2022-12-25T13:25:09.389Z,98441.50
2022-12-25T13:27:36.249Z,98443.91
2022-12-25T13:30:19.396Z,98428.66
2022-12-25T13:32:46.248Z,98433.88
2022-12-25T13:35:17.594Z,98437.31
2022-12-25T13:37:45.103Z,98447.78
2022-12-25T13:40:27.141Z,98457.34
2022-12-25T13:43:00.493Z,98430.91
2022-12-25T13:45:31.484Z,98434.94
2022-12-25T13:47:58.531Z,98428.81
2022-12-25T13:50:32.300Z,98417.94
2022-12-25T13:53:12.986Z,98421.50
2022-12-25T13:55:44.253Z,98412.56
2022-12-25T13:58:30.643Z,98419.41
2022-12-25T14:00:59.931Z,98424.66
2022-12-25T14:03:41.852Z,98433.75
2022-12-25T14:06:30.686Z,98424.50
2022-12-25T14:08:59.551Z,98431.34
2022-12-25T14:11:36.639Z,98423.91
2022-12-25T14:14:25.648Z,98416.16
2022-12-25T14:16:56.549Z,98419.41
2022-12-25T14:19:30.762Z,98407.78
2022-12-25T14:22:01.211Z,98414.03
2022-12-25T14:24:30.522Z,98423.31
2022-12-25T14:27:07.414Z,98418.19
2022-12-25T14:29:41.776Z,98415.09
2022-12-25T14:32:16.395Z,98418.22
2022-12-25T14:34:46.231Z,98416.75
2022-12-25T14:37:19.592Z,98430.28
2022-12-25T14:39:59.375Z,98416.72
2022-12-25T14:42:33.232Z,98411.53
2022-12-25T14:45:20.542Z,98423.75
2022-12-25T14:47:53.974Z,98422.09
2022-12-25T14:50:39.663Z,98411.50
2022-12-25T14:53:19.941Z,98407.03
2022-12-25T14:55:52.945Z,98415.09
2022-12-25T14:58:25.944Z,98420.16
2022-12-25T15:01:02.018Z,98429.13
2022-12-25T15:03:36.355Z,98425.22
2022-12-25T15:06:19.023Z,98428.81
2022-12-25T15:08:58.093Z,98427.47
2022-12-25T15:11:24.750Z,98428.81
2022-12-25T15:13:51.939Z,98421.06
2022-12-25T15:16:40.346Z,98426.88
2022-12-25T15:19:09.766Z,98419.41
2022-12-25T15:21:37.010Z,98426.88
2022-12-25T15:24:04.264Z,98432.25
2022-12-25T15:26:32.472Z,98428.97
2022-12-25T15:28:59.148Z,98428.38
2022-12-25T15:31:30.188Z,98421.19
2022-12-25T15:34:00.334Z,98411.19
2022-12-25T15:36:27.748Z,98406.41
2022-12-25T15:38:55.616Z,98422.84
2022-12-25T15:42:02.804Z,98423.47
2022-12-25T15:44:29.463Z,98426.88
2022-12-25T15:46:57.002Z,98427.06
2022-12-25T15:49:23.617Z,98424.78
2022-12-25T15:51:50.206Z,98427.47
2022-12-25T15:54:17.340Z,98438.41
2022-12-25T15:56:51.866Z,98447.78
2022-12-25T15:59:20.378Z,98422.69
2022-12-25T16:02:01.538Z,98427.19
2022-12-25T16:04:31.081Z,98427.78
2022-12-25T16:07:02.702Z,98413.75
2022-12-25T16:09:29.314Z,98414.94
2022-12-25T16:11:55.879Z,98403.28
2022-12-25T16:14:22.439Z,98399.13
2022-12-25T16:16:52.871Z,98398.50
2022-12-25T16:19:19.430Z,98395.34
2022-12-25T16:21:47.250Z,98389.56
2022-12-25T16:24:14.403Z,98391.94
2022-12-25T16:26:42.862Z,98379.97
2022-12-25T16:29:09.949Z,98378.44
2022-12-25T16:31:37.766Z,98375.81
2022-12-25T16:34:06.358Z,98383.25
2022-12-25T16:36:35.097Z,98381.78
2022-12-25T16:39:03.191Z,98382.38
2022-12-25T16:41:29.851Z,98386.72
2022-12-25T16:43:56.447Z,98383.00
2022-12-25T16:46:23.287Z,98393.63
2022-12-25T16:48:50.035Z,98402.09
2022-12-25T16:51:19.607Z,98403.88
2022-12-25T16:53:47.078Z,98401.47
2022-12-25T16:56:20.419Z,98408.31
2022-12-25T16:58:47.743Z,98420.53
2022-12-25T17:01:18.152Z,98419.19
2022-12-25T17:03:46.093Z,98425.84
2022-12-25T17:06:25.494Z,98428.22
2022-12-25T17:08:56.535Z,98415.63
2022-12-25T17:11:27.142Z,98411.03
2022-12-25T17:13:54.298Z,98406.63
2022-12-25T17:16:27.506Z,98401.66
2022-12-25T17:19:07.788Z,98400.81
2022-12-25T17:21:36.572Z,98399.66
2022-12-25T17:24:04.499Z,98395.47
2022-12-25T17:26:32.683Z,98397.75
2022-12-25T17:28:59.893Z,98394.00
2022-12-25T17:31:27.567Z,98390.59
2022-12-25T17:33:54.616Z,98389.41
2022-12-25T17:36:22.571Z,98376.56
2022-12-25T17:38:49.959Z,98380.06
2022-12-25T17:41:18.988Z,98390.94
2022-12-25T17:43:46.436Z,98389.13
2022-12-25T17:46:23.439Z,98384.19
2022-12-25T17:48:51.438Z,98392.47
2022-12-25T17:51:22.323Z,98402.81
2022-12-25T17:53:54.582Z,98395.88
2022-12-25T17:56:23.780Z,98402.81
2022-12-25T17:58:52.968Z,98399.00
2022-12-25T18:01:21.260Z,98392.03
2022-12-25T18:03:48.266Z,98400.72
2022-12-25T18:06:19.806Z,98396.22
2022-12-25T18:08:47.923Z,98394.44
2022-12-25T18:11:20.178Z,98391.88
2022-12-25T18:13:51.648Z,98387.91
2022-12-25T18:16:22.038Z,98398.03
2022-12-25T18:18:52.229Z,98393.13
2022-12-25T18:21:21.183Z,98389.72
2022-12-25T18:23:48.174Z,98388.78
2022-12-25T18:26:14.985Z,98380.03
2022-12-25T18:28:42.499Z,98384.03
2022-12-25T18:31:15.056Z,98384.38
2022-12-25T18:33:42.510Z,98380.53
2022-12-25T18:36:11.494Z,98372.44
2022-12-25T18:38:38.111Z,98377.56
2022-12-25T18:41:07.287Z,98372.84
2022-12-25T18:43:51.269Z,98385.38
2022-12-25T18:46:23.734Z,98397.28
2022-12-25T18:48:50.654Z,98386.59
2022-12-25T18:51:17.902Z,98383.75
2022-12-25T18:53:45.009Z,98385.94
2022-12-25T18:56:16.983Z,98374.81
2022-12-25T18:58:44.462Z,98375.25
2022-12-25T19:01:15.748Z,98375.94
2022-12-25T19:03:43.084Z,98366.13
2022-12-25T19:06:25.365Z,98351.66
2022-12-25T19:08:53.356Z,98362.84
2022-12-25T19:11:20.571Z,98366.28
2022-12-25T19:13:47.492Z,98364.63
2022-12-25T19:16:14.892Z,98362.97
2022-12-25T19:18:42.760Z,98362.41
2022-12-25T19:21:09.940Z,98369.41
2022-12-25T19:23:37.992Z,98371.66
2022-12-25T19:26:06.669Z,98364.81
2022-12-25T19:28:34.067Z,98378.38
2022-12-25T19:31:01.899Z,98362.97
2022-12-25T19:33:30.812Z,98372.41
2022-12-25T19:36:07.083Z,98377.03
2022-12-25T19:38:33.772Z,98359.53
2022-12-25T19:41:09.961Z,98359.66
2022-12-25T19:43:40.018Z,98337.44
2022-12-25T19:46:17.803Z,98335.91
2022-12-25T19:48:45.353Z,98347.25
2022-12-25T19:51:25.429Z,98360.28
2022-12-25T19:53:53.467Z,98355.44
2022-12-25T19:56:20.101Z,98350.66
2022-12-25T19:58:46.699Z,98345.75
2022-12-25T20:01:17.245Z,98352.56
2022-12-25T20:03:46.469Z,98341.06
2022-12-25T20:06:19.832Z,98341.25
2022-12-25T20:08:47.780Z,98351.44
2022-12-25T20:11:15.598Z,98344.28
2022-12-25T20:13:42.290Z,98344.06
2022-12-25T20:16:09.990Z,98344.69
2022-12-25T20:18:46.802Z,98348.63
2022-12-25T20:21:17.991Z,98357.03
2022-12-25T20:23:47.552Z,98344.31
2022-12-25T20:26:17.166Z,98364.38
2022-12-25T20:28:45.405Z,98358.94
2022-12-25T20:31:29.938Z,98352.91
2022-12-25T20:33:59.345Z,98364.34
2022-12-25T20:36:29.650Z,98365.31
2022-12-25T20:38:57.949Z,98371.00
2022-12-25T20:41:26.855Z,98365.72
2022-12-25T20:43:54.861Z,98373.84
2022-12-25T20:46:22.550Z,98358.31
2022-12-25T20:48:49.353Z,98381.44
2022-12-25T20:51:20.390Z,98372.41
2022-12-25T20:53:47.843Z,98364.69
2022-12-25T20:56:17.419Z,98370.53
2022-12-25T20:58:44.385Z,98375.63
2022-12-25T21:01:15.854Z,98371.56
2022-12-25T21:03:43.436Z,98381.75
2022-12-25T21:06:10.919Z,98360.38
2022-12-25T21:08:40.588Z,98353.69
2022-12-25T21:11:08.633Z,98346.69
2022-12-25T21:13:40.088Z,98359.44
2022-12-25T21:16:10.713Z,98361.88
2022-12-25T21:18:37.887Z,98366.63
2022-12-25T21:21:07.290Z,98365.13
2022-12-25T21:23:36.953Z,98374.66
2022-12-25T21:26:20.623Z,98375.88
2022-12-25T21:28:48.723Z,98368.22
2022-12-25T21:31:15.563Z,98371.53
2022-12-25T21:33:51.577Z,98381.88
2022-12-25T21:36:27.609Z,98384.84
2022-12-25T21:39:06.400Z,98402.88
2022-12-25T21:41:35.209Z,98395.94
2022-12-25T21:44:02.364Z,98400.19
2022-12-25T21:46:29.783Z,98402.09
2022-12-25T21:48:57.419Z,98414.31
2022-12-25T21:51:49.768Z,98403.13
2022-12-25T21:54:18.132Z,98407.22
2022-12-25T21:56:47.180Z,98410.47
2022-12-25T21:59:17.852Z,98403.13
2022-12-25T22:01:45.305Z,98402.38
2022-12-25T22:04:14.476Z,98409.47
2022-12-25T22:07:00.270Z,98403.00
2022-12-25T22:09:27.102Z,98397.72
2022-12-25T22:12:12.446Z,98412.06
2022-12-25T22:14:54.961Z,98413.53
2022-12-25T22:17:44.460Z,98415.28
2022-12-25T22:20:23.919Z,98430.94
2022-12-25T22:22:50.715Z,98418.00
2022-12-25T22:25:18.505Z,98405.25
2022-12-25T22:27:47.206Z,98417.91
2022-12-25T22:30:20.754Z,98418.53
2022-12-25T22:32:48.179Z,98414.66
2022-12-25T22:35:14.971Z,98430.44
2022-12-25T22:37:42.756Z,98420.69
2022-12-25T22:40:13.876Z,98414.94
2022-12-25T22:42:41.179Z,98407.59
2022-12-25T22:45:09.078Z,98406.41
2022-12-25T22:47:36.467Z,98411.66
2022-12-25T22:50:03.546Z,98405.88
2022-12-25T22:52:30.161Z,98414.03
2022-12-25T22:54:56.835Z,98426.41
2022-12-25T22:57:23.566Z,98430.03
2022-12-25T22:59:52.720Z,98415.81
2022-12-25T23:02:19.718Z,98423.78
2022-12-25T23:04:46.660Z,98423.34
2022-12-25T23:07:15.461Z,98420.75
2022-12-25T23:09:43.514Z,98418.75
2022-12-25T23:12:29.715Z,98420.28
2022-12-25T23:14:57.817Z,98423.53
2022-12-25T23:17:42.931Z,98414.50
2022-12-25T23:20:38.231Z,98408.41
2022-12-25T23:23:23.749Z,98412.81
2022-12-25T23:26:08.651Z,98410.16
2022-12-25T23:28:56.252Z,98415.06
2022-12-25T23:31:31.714Z,98414.50
2022-12-25T23:33:58.537Z,98422.59
2022-12-25T23:36:25.335Z,98424.06
2022-12-25T23:38:52.048Z,98420.63
2022-12-25T23:41:19.140Z,98429.38
2022-12-25T23:43:45.740Z,98421.66
2022-12-25T23:46:12.487Z,98416.56
2022-12-25T23:48:42.755Z,98416.59
2022-12-25T23:51:09.672Z,98425.13
2022-12-25T23:53:36.718Z,98419.19
2022-12-25T23:56:03.793Z,98424.03
2022-12-25T23:58:32.208Z,98428.63
